EGGP/LPL METAR and TAF weather

Enter ICAO airport designator
Station Type Date Time Source
EGGP METAR 2019/04/21 21:50 UTC NOAA

EGGP 212150Z VRB03KT CAVOK 14/09 Q1012


Station Type Date Time Source
EGGP Decoded METAR 2019/04/21 21:50 UTC NOAA

Liverpool Airport , United Kingdom (EGGP) 53-20N 002-51W
Apr 21, 2019 - 05:50 PM EDT / 2019.04.21 2150 UTC
Wind: Variable at 3 MPH (3 KT):0
Visibility: greater than 7 mile(s):0
Temperature: 57 F (14 C)
Dew Point: 48 F (9 C)
Relative Humidity: 71%
Pressure (altimeter): 29.88 in. Hg (1012 hPa)
ob: EGGP 212150Z VRB03KT CAVOK 14/09 Q1012
cycle: 22

Station Type Date Time Source
EGGP TAF 2019/04/21 18:09 UTC NOAA

TAF EGGP 211654Z 2118/2218 14006KT CAVOK

Example: see airport list